sensor_id;sensor_type;location;lat;lon;timestamp;pressure;altitude;pressure_sealevel;temperature;humidity
11808;BME280;5961;42.640;23.380;2024-02-14T00:00:04;93729.78;;;6.03;100.00
11808;BME280;5961;42.640;23.380;2024-02-14T00:02:31;93729.31;;;6.01;100.00
11808;BME280;5961;42.640;23.380;2024-02-14T00:04:58;93740.94;;;6.08;99.70
11808;BME280;5961;42.640;23.380;2024-02-14T00:07:25;93742.19;;;6.11;99.60
11808;BME280;5961;42.640;23.380;2024-02-14T00:09:52;93743.91;;;6.07;100.00
11808;BME280;5961;42.640;23.380;2024-02-14T00:12:19;93740.31;;;6.03;99.97
11808;BME280;5961;42.640;23.380;2024-02-14T00:14:46;93719.84;;;5.91;99.50
11808;BME280;5961;42.640;23.380;2024-02-14T00:17:15;93748.53;;;6.01;100.00
11808;BME280;5961;42.640;23.380;2024-02-14T00:19:42;93760.97;;;6.10;100.00
11808;BME280;5961;42.640;23.380;2024-02-14T00:22:08;93746.69;;;6.11;99.99
11808;BME280;5961;42.640;23.380;2024-02-14T00:24:35;93764.69;;;6.08;99.69
11808;BME280;5961;42.640;23.380;2024-02-14T00:27:02;93744.81;;;6.02;100.00
11808;BME280;5961;42.640;23.380;2024-02-14T00:29:29;93742.34;;;5.97;99.71
11808;BME280;5961;42.640;23.380;2024-02-14T00:31:56;93736.28;;;6.05;99.99
11808;BME280;5961;42.640;23.380;2024-02-14T00:34:24;93755.53;;;6.06;99.69
11808;BME280;5961;42.640;23.380;2024-02-14T00:36:50;93759.41;;;6.08;100.00
11808;BME280;5961;42.640;23.380;2024-02-14T00:39:17;93755.84;;;6.13;99.81
11808;BME280;5961;42.640;23.380;2024-02-14T00:41:46;93758.78;;;6.12;99.47
11808;BME280;5961;42.640;23.380;2024-02-14T00:44:13;93756.00;;;6.08;99.80
11808;BME280;5961;42.640;23.380;2024-02-14T00:46:42;93771.53;;;6.10;99.59
11808;BME280;5961;42.640;23.380;2024-02-14T00:49:08;93767.03;;;6.10;99.66
11808;BME280;5961;42.640;23.380;2024-02-14T00:51:37;93773.69;;;6.07;99.75
11808;BME280;5961;42.640;23.380;2024-02-14T00:54:04;93756.31;;;6.06;99.57
11808;BME280;5961;42.640;23.380;2024-02-14T00:56:30;93761.59;;;6.06;99.87
11808;BME280;5961;42.640;23.380;2024-02-14T00:58:57;93757.38;;;6.05;99.96
11808;BME280;5961;42.640;23.380;2024-02-14T01:01:24;93760.47;;;6.07;100.00
11808;BME280;5961;42.640;23.380;2024-02-14T01:03:51;93757.09;;;6.07;99.51
11808;BME280;5961;42.640;23.380;2024-02-14T01:06:17;93765.47;;;6.09;99.68
11808;BME280;5961;42.640;23.380;2024-02-14T01:08:46;93756.59;;;6.14;99.69
11808;BME280;5961;42.640;23.380;2024-02-14T01:11:13;93781.59;;;6.07;100.00
11808;BME280;5961;42.640;23.380;2024-02-14T01:13:40;93792.00;;;6.04;99.41
11808;BME280;5961;42.640;23.380;2024-02-14T01:16:07;93760.81;;;6.06;100.00
11808;BME280;5961;42.640;23.380;2024-02-14T01:18:33;93786.88;;;5.99;100.00
11808;BME280;5961;42.640;23.380;2024-02-14T01:21:01;93766.53;;;5.99;100.00
11808;BME280;5961;42.640;23.380;2024-02-14T01:23:27;93760.31;;;5.95;100.00
11808;BME280;5961;42.640;23.380;2024-02-14T01:25:55;93757.22;;;6.11;99.91
11808;BME280;5961;42.640;23.380;2024-02-14T01:28:22;93760.34;;;6.13;99.70
11808;BME280;5961;42.640;23.380;2024-02-14T01:30:49;93759.88;;;6.11;99.15
11808;BME280;5961;42.640;23.380;2024-02-14T01:33:16;93781.13;;;6.05;99.38
11808;BME280;5961;42.640;23.380;2024-02-14T01:35:43;93774.63;;;6.03;99.15
11808;BME280;5961;42.640;23.380;2024-02-14T01:38:10;93756.00;;;5.99;99.57
11808;BME280;5961;42.640;23.380;2024-02-14T01:40:37;93750.09;;;6.02;99.38
11808;BME280;5961;42.640;23.380;2024-02-14T01:43:05;93773.69;;;5.99;98.56
11808;BME280;5961;42.640;23.380;2024-02-14T01:45:32;93762.22;;;6.03;98.52
11808;BME280;5961;42.640;23.380;2024-02-14T01:47:58;93770.75;;;6.00;98.63
11808;BME280;5961;42.640;23.380;2024-02-14T01:50:25;93748.53;;;6.01;98.71
11808;BME280;5961;42.640;23.380;2024-02-14T01:52:56;93755.38;;;6.02;98.20
11808;BME280;5961;42.640;23.380;2024-02-14T01:55:24;93757.56;;;6.00;98.68
11808;BME280;5961;42.640;23.380;2024-02-14T01:57:52;93760.31;;;5.95;98.60
11808;BME280;5961;42.640;23.380;2024-02-14T02:00:21;93752.28;;;6.00;98.39
11808;BME280;5961;42.640;23.380;2024-02-14T02:02:48;93760.66;;;6.02;97.77
11808;BME280;5961;42.640;23.380;2024-02-14T02:05:15;93760.03;;;6.05;98.62
11808;BME280;5961;42.640;23.380;2024-02-14T02:07:42;93787.03;;;6.02;98.28
11808;BME280;5961;42.640;23.380;2024-02-14T02:10:10;93756.31;;;6.06;98.13
11808;BME280;5961;42.640;23.380;2024-02-14T02:12:37;93758.19;;;5.97;97.43
11808;BME280;5961;42.640;23.380;2024-02-14T02:15:05;93776.63;;;5.97;97.85
11808;BME280;5961;42.640;23.380;2024-02-14T02:17:33;93787.47;;;5.96;97.87
11808;BME280;5961;42.640;23.380;2024-02-14T02:20:00;93771.81;;;5.99;97.92
11808;BME280;5961;42.640;23.380;2024-02-14T02:22:27;93771.50;;;5.92;98.10
11808;BME280;5961;42.640;23.380;2024-02-14T02:24:59;93778.50;;;5.97;98.12
11808;BME280;5961;42.640;23.380;2024-02-14T02:27:25;93766.53;;;5.99;98.13
11808;BME280;5961;42.640;23.380;2024-02-14T02:29:52;93773.84;;;6.02;97.45
11808;BME280;5961;42.640;23.380;2024-02-14T02:32:19;93792.91;;;5.99;97.06
11808;BME280;5961;42.640;23.380;2024-02-14T02:34:45;93779.28;;;5.97;97.34
11808;BME280;5961;42.640;23.380;2024-02-14T02:37:12;93788.44;;;6.00;96.69
11808;BME280;5961;42.640;23.380;2024-02-14T02:39:39;93759.06;;;5.84;96.35
11808;BME280;5961;42.640;23.380;2024-02-14T02:42:07;93778.78;;;5.95;96.79
11808;BME280;5961;42.640;23.380;2024-02-14T02:44:38;93787.81;;;5.94;96.74
11808;BME280;5961;42.640;23.380;2024-02-14T02:47:05;93802.53;;;5.95;96.30
11808;BME280;5961;42.640;23.380;2024-02-14T02:49:31;93802.84;;;5.94;97.03
11808;BME280;5961;42.640;23.380;2024-02-14T02:51:58;93784.22;;;5.90;96.93
11808;BME280;5961;42.640;23.380;2024-02-14T02:54:24;93785.63;;;5.96;97.20
11808;BME280;5961;42.640;23.380;2024-02-14T02:56:51;93798.19;;;5.99;96.51
11808;BME280;5961;42.640;23.380;2024-02-14T02:59:19;93801.28;;;6.01;95.72
11808;BME280;5961;42.640;23.380;2024-02-14T03:01:47;93819.75;;;6.01;95.95
11808;BME280;5961;42.640;23.380;2024-02-14T03:04:14;93797.75;;;5.97;96.34
11808;BME280;5961;42.640;23.380;2024-02-14T03:06:41;93803.63;;;6.03;95.91
11808;BME280;5961;42.640;23.380;2024-02-14T03:09:10;93808.28;;;6.06;95.87
11808;BME280;5961;42.640;23.380;2024-02-14T03:11:38;93803.03;;;6.06;95.83
11808;BME280;5961;42.640;23.380;2024-02-14T03:14:04;93810.75;;;6.02;95.68
11808;BME280;5961;42.640;23.380;2024-02-14T03:16:34;93770.81;;;5.78;95.62
11808;BME280;5961;42.640;23.380;2024-02-14T03:19:02;93809.47;;;5.83;95.47
11808;BME280;5961;42.640;23.380;2024-02-14T03:21:30;93826.13;;;6.00;95.38
11808;BME280;5961;42.640;23.380;2024-02-14T03:23:57;93799.44;;;5.93;95.20
11808;BME280;5961;42.640;23.380;2024-02-14T03:26:24;93804.25;;;5.91;94.58
11808;BME280;5961;42.640;23.380;2024-02-14T03:28:52;93843.50;;;6.01;95.36
11808;BME280;5961;42.640;23.380;2024-02-14T03:31:20;93825.53;;;6.03;94.28
11808;BME280;5961;42.640;23.380;2024-02-14T03:33:48;93845.06;;;6.02;94.54
11808;BME280;5961;42.640;23.380;2024-02-14T03:36:14;93849.38;;;5.98;94.83
11808;BME280;5961;42.640;23.380;2024-02-14T03:38:41;93885.38;;;5.94;94.63
11808;BME280;5961;42.640;23.380;2024-02-14T03:41:08;93851.72;;;5.91;94.56
11808;BME280;5961;42.640;23.380;2024-02-14T03:43:34;93843.81;;;5.91;94.15
11808;BME280;5961;42.640;23.380;2024-02-14T03:46:01;93881.97;;;5.94;94.53
11808;BME280;5961;42.640;23.380;2024-02-14T03:48:28;93844.09;;;5.90;94.53
11808;BME280;5961;42.640;23.380;2024-02-14T03:50:56;93840.38;;;5.91;93.88
11808;BME280;5961;42.640;23.380;2024-02-14T03:53:23;93829.63;;;5.79;93.75
11808;BME280;5961;42.640;23.380;2024-02-14T03:55:50;93850.00;;;5.95;94.06
11808;BME280;5961;42.640;23.380;2024-02-14T03:58:18;93858.72;;;6.04;93.66
11808;BME280;5961;42.640;23.380;2024-02-14T04:00:48;93866.31;;;6.06;93.21
11808;BME280;5961;42.640;23.380;2024-02-14T04:03:15;93880.13;;;5.94;93.59
11808;BME280;5961;42.640;23.380;2024-02-14T04:05:43;93872.66;;;5.96;93.18
11808;BME280;5961;42.640;23.380;2024-02-14T04:08:11;93869.25;;;5.96;92.38
11808;BME280;5961;42.640;23.380;2024-02-14T04:10:38;93878.56;;;5.93;93.16
11808;BME280;5961;42.640;23.380;2024-02-14T04:13:05;93869.69;;;5.89;92.82
11808;BME280;5961;42.640;23.380;2024-02-14T04:15:31;93883.50;;;5.86;92.83
11808;BME280;5961;42.640;23.380;2024-02-14T04:17:58;93868.63;;;5.90;93.60
11808;BME280;5961;42.640;23.380;2024-02-14T04:20:27;93866.13;;;5.85;93.53
11808;BME280;5961;42.640;23.380;2024-02-14T04:22:54;93886.13;;;5.86;93.24
11808;BME280;5961;42.640;23.380;2024-02-14T04:25:23;93884.44;;;5.90;93.14
11808;BME280;5961;42.640;23.380;2024-02-14T04:27:50;93877.72;;;5.84;93.08
11808;BME280;5961;42.640;23.380;2024-02-14T04:30:16;93878.78;;;5.83;93.53
11808;BME280;5961;42.640;23.380;2024-02-14T04:32:43;93891.88;;;5.88;93.12
11808;BME280;5961;42.640;23.380;2024-02-14T04:35:10;93917.28;;;5.84;93.13
11808;BME280;5961;42.640;23.380;2024-02-14T04:37:36;93900.88;;;5.87;92.57
11808;BME280;5961;42.640;23.380;2024-02-14T04:40:04;93886.84;;;5.78;93.58
11808;BME280;5961;42.640;23.380;2024-02-14T04:42:32;93929.50;;;5.80;93.21
11808;BME280;5961;42.640;23.380;2024-02-14T04:44:59;93928.56;;;5.76;93.65
11808;BME280;5961;42.640;23.380;2024-02-14T04:47:26;93893.19;;;5.77;94.05
11808;BME280;5961;42.640;23.380;2024-02-14T04:49:53;93893.34;;;5.72;94.12
11808;BME280;5961;42.640;23.380;2024-02-14T04:52:20;93911.16;;;5.67;94.10
11808;BME280;5961;42.640;23.380;2024-02-14T04:54:46;93907.47;;;5.68;94.60
11808;BME280;5961;42.640;23.380;2024-02-14T04:57:13;93924.03;;;5.68;94.45
11808;BME280;5961;42.640;23.380;2024-02-14T04:59:42;93927.75;;;5.67;94.52
11808;BME280;5961;42.640;23.380;2024-02-14T05:02:08;93924.03;;;5.68;94.62
11808;BME280;5961;42.640;23.380;2024-02-14T05:04:35;93932.25;;;5.67;94.99
11808;BME280;5961;42.640;23.380;2024-02-14T05:07:03;93935.19;;;5.65;95.64
11808;BME280;5961;42.640;23.380;2024-02-14T05:09:30;93925.25;;;5.62;95.31
11808;BME280;5961;42.640;23.380;2024-02-14T05:11:56;93927.44;;;5.69;95.47
11808;BME280;5961;42.640;23.380;2024-02-14T05:14:23;93942.25;;;5.56;95.84
11808;BME280;5961;42.640;23.380;2024-02-14T05:16:51;93937.94;;;5.60;96.07
11808;BME280;5961;42.640;23.380;2024-02-14T05:19:18;93944.50;;;5.71;95.71
11808;BME280;5961;42.640;23.380;2024-02-14T05:21:47;93944.38;;;5.68;95.27
11808;BME280;5961;42.640;23.380;2024-02-14T05:24:13;93944.97;;;5.65;95.72
11808;BME280;5961;42.640;23.380;2024-02-14T05:26:40;93946.53;;;5.74;95.13
11808;BME280;5961;42.640;23.380;2024-02-14T05:29:07;93962.84;;;5.76;94.89
11808;BME280;5961;42.640;23.380;2024-02-14T05:31:43;93967.94;;;5.73;94.72
11808;BME280;5961;42.640;23.380;2024-02-14T05:34:11;93963.47;;;5.73;95.32
11808;BME280;5961;42.640;23.380;2024-02-14T05:36:38;93982.09;;;5.77;94.67
11808;BME280;5961;42.640;23.380;2024-02-14T05:39:05;93972.44;;;5.72;94.86
11808;BME280;5961;42.640;23.380;2024-02-14T05:41:33;93937.28;;;5.46;95.00
11808;BME280;5961;42.640;23.380;2024-02-14T05:44:01;93984.75;;;5.54;95.45
11808;BME280;5961;42.640;23.380;2024-02-14T05:46:28;93983.56;;;5.61;95.41
11808;BME280;5961;42.640;23.380;2024-02-14T05:48:55;93984.63;;;5.60;94.77
11808;BME280;5961;42.640;23.380;2024-02-14T05:51:24;93995.94;;;5.60;94.62
11808;BME280;5961;42.640;23.380;2024-02-14T05:53:50;93996.38;;;5.53;95.25
11808;BME280;5961;42.640;23.380;2024-02-14T05:56:17;93994.66;;;5.49;95.14
11808;BME280;5961;42.640;23.380;2024-02-14T05:58:44;94028.13;;;5.48;94.76
11808;BME280;5961;42.640;23.380;2024-02-14T06:01:10;94007.50;;;5.50;95.02
11808;BME280;5961;42.640;23.380;2024-02-14T06:03:37;94007.22;;;5.52;94.45
11808;BME280;5961;42.640;23.380;2024-02-14T06:06:04;93998.81;;;5.50;94.76
11808;BME280;5961;42.640;23.380;2024-02-14T06:08:32;94005.44;;;5.39;94.51
11808;BME280;5961;42.640;23.380;2024-02-14T06:10:59;94005.44;;;5.39;95.11
11808;BME280;5961;42.640;23.380;2024-02-14T06:13:26;94026.69;;;5.42;95.34
11808;BME280;5961;42.640;23.380;2024-02-14T06:15:52;94017.88;;;5.47;94.42
11808;BME280;5961;42.640;23.380;2024-02-14T06:18:19;94020.34;;;5.43;93.60
11808;BME280;5961;42.640;23.380;2024-02-14T06:20:45;94047.38;;;5.49;94.04
11808;BME280;5961;42.640;23.380;2024-02-14T06:23:12;94033.81;;;5.42;93.48
11808;BME280;5961;42.640;23.380;2024-02-14T06:25:40;94039.47;;;5.49;93.13
11808;BME280;5961;42.640;23.380;2024-02-14T06:28:07;94036.31;;;5.47;92.58
11808;BME280;5961;42.640;23.380;2024-02-14T06:30:34;94036.31;;;5.47;92.32
11808;BME280;5961;42.640;23.380;2024-02-14T06:33:01;94043.28;;;5.43;92.57
11808;BME280;5961;42.640;23.380;2024-02-14T06:35:29;94035.38;;;5.43;92.70
11808;BME280;5961;42.640;23.380;2024-02-14T06:37:55;94051.66;;;5.45;92.11
11808;BME280;5961;42.640;23.380;2024-02-14T06:40:22;94044.84;;;5.44;92.10
11808;BME280;5961;42.640;23.380;2024-02-14T06:42:51;94067.28;;;5.41;92.05
11808;BME280;5961;42.640;23.380;2024-02-14T06:45:20;94069.84;;;5.46;91.39
11808;BME280;5961;42.640;23.380;2024-02-14T06:47:46;94021.00;;;5.05;91.08
11808;BME280;5961;42.640;23.380;2024-02-14T06:50:13;94113.00;;;5.37;90.61
11808;BME280;5961;42.640;23.380;2024-02-14T06:52:40;94045.69;;;5.31;91.19
11808;BME280;5961;42.640;23.380;2024-02-14T06:55:07;94063.81;;;5.32;91.40
11808;BME280;5961;42.640;23.380;2024-02-14T06:57:34;94062.56;;;5.30;91.94
11808;BME280;5961;42.640;23.380;2024-02-14T07:00:02;94058.53;;;5.32;91.79
11808;BME280;5961;42.640;23.380;2024-02-14T07:02:31;94090.47;;;5.31;91.69
11808;BME280;5961;42.640;23.380;2024-02-14T07:04:58;94086.16;;;5.35;91.05
11808;BME280;5961;42.640;23.380;2024-02-14T07:07:25;94063.72;;;5.37;90.94
11808;BME280;5961;42.640;23.380;2024-02-14T07:09:53;94073.34;;;5.42;90.94
11808;BME280;5961;42.640;23.380;2024-02-14T07:12:19;94087.25;;;5.34;90.83
11808;BME280;5961;42.640;23.380;2024-02-14T07:14:47;94073.31;;;5.20;90.72
11808;BME280;5961;42.640;23.380;2024-02-14T07:17:15;94040.38;;;5.09;90.17
11808;BME280;5961;42.640;23.380;2024-02-14T07:19:41;94094.66;;;5.32;89.63
11808;BME280;5961;42.640;23.380;2024-02-14T07:22:13;94097.78;;;5.34;89.85
11808;BME280;5961;42.640;23.380;2024-02-14T07:24:41;94101.88;;;5.40;90.01
11808;BME280;5961;42.640;23.380;2024-02-14T07:27:08;94099.72;;;5.42;89.49
11808;BME280;5961;42.640;23.380;2024-02-14T07:29:35;94113.19;;;5.40;89.87
11808;BME280;5961;42.640;23.380;2024-02-14T07:32:02;94106.34;;;5.39;89.09
11808;BME280;5961;42.640;23.380;2024-02-14T07:34:30;94097.66;;;5.39;89.42
11808;BME280;5961;42.640;23.380;2024-02-14T07:36:57;94093.00;;;5.36;89.19
11808;BME280;5961;42.640;23.380;2024-02-14T07:39:24;94098.50;;;5.48;88.17
11808;BME280;5961;42.640;23.380;2024-02-14T07:41:51;94076.91;;;5.37;88.74
11808;BME280;5961;42.640;23.380;2024-02-14T07:44:17;94105.16;;;5.45;88.52
11808;BME280;5961;42.640;23.380;2024-02-14T07:46:44;94136.91;;;5.40;88.33
11808;BME280;5961;42.640;23.380;2024-02-14T07:49:11;94100.69;;;5.46;88.69
11808;BME280;5961;42.640;23.380;2024-02-14T07:51:39;94113.19;;;5.40;88.60
11808;BME280;5961;42.640;23.380;2024-02-14T07:54:05;94131.91;;;5.39;88.52
11808;BME280;5961;42.640;23.380;2024-02-14T07:56:32;94129.94;;;5.44;87.80
11808;BME280;5961;42.640;23.380;2024-02-14T07:58:59;94100.09;;;5.35;88.69
11808;BME280;5961;42.640;23.380;2024-02-14T08:01:26;94111.25;;;5.32;88.57
11808;BME280;5961;42.640;23.380;2024-02-14T08:03:53;94112.50;;;5.35;89.44
11808;BME280;5961;42.640;23.380;2024-02-14T08:06:20;94120.78;;;5.42;88.13
11808;BME280;5961;42.640;23.380;2024-02-14T08:08:48;94136.16;;;5.26;89.05
11808;BME280;5961;42.640;23.380;2024-02-14T08:11:17;94125.91;;;5.25;90.61
11808;BME280;5961;42.640;23.380;2024-02-14T08:13:44;94139.69;;;5.22;90.04
11808;BME280;5961;42.640;23.380;2024-02-14T08:16:11;94136.44;;;5.25;90.00
11808;BME280;5961;42.640;23.380;2024-02-14T08:18:37;94132.72;;;5.26;90.22
11808;BME280;5961;42.640;23.380;2024-02-14T08:21:05;94126.50;;;5.22;91.14
11808;BME280;5961;42.640;23.380;2024-02-14T08:23:31;94120.72;;;5.20;91.62
11808;BME280;5961;42.640;23.380;2024-02-14T08:26:01;94132.38;;;5.19;90.77
11808;BME280;5961;42.640;23.380;2024-02-14T08:28:28;94152.47;;;5.15;90.73
11808;BME280;5961;42.640;23.380;2024-02-14T08:30:54;94150.53;;;5.07;91.22
11808;BME280;5961;42.640;23.380;2024-02-14T08:33:21;94143.31;;;5.12;91.60
11808;BME280;5961;42.640;23.380;2024-02-14T08:35:48;94139.59;;;5.13;91.29
11808;BME280;5961;42.640;23.380;2024-02-14T08:38:14;94141.34;;;5.18;91.27
11808;BME280;5961;42.640;23.380;2024-02-14T08:40:41;94152.47;;;5.15;90.99
11808;BME280;5961;42.640;23.380;2024-02-14T08:43:09;94164.56;;;5.16;91.42
11808;BME280;5961;42.640;23.380;2024-02-14T08:45:36;94149.34;;;5.13;91.12
11808;BME280;5961;42.640;23.380;2024-02-14T08:48:04;94130.53;;;5.06;90.13
11808;BME280;5961;42.640;23.380;2024-02-14T08:50:31;94141.75;;;4.97;90.30
11808;BME280;5961;42.640;23.380;2024-02-14T08:52:58;94134.44;;;4.81;89.83
11808;BME280;5961;42.640;23.380;2024-02-14T08:55:25;94134.34;;;4.86;91.05
11808;BME280;5961;42.640;23.380;2024-02-14T08:57:51;94152.28;;;4.97;90.10
11808;BME280;5961;42.640;23.380;2024-02-14T09:00:19;94175.59;;;4.90;90.04
11808;BME280;5961;42.640;23.380;2024-02-14T09:02:47;94165.56;;;4.92;90.22
11808;BME280;5961;42.640;23.380;2024-02-14T09:05:14;94156.78;;;4.97;90.23
11808;BME280;5961;42.640;23.380;2024-02-14T09:10:11;94169.25;;;5.05;89.08
11808;BME280;5961;42.640;23.380;2024-02-14T09:12:38;94173.75;;;5.05;89.20
11808;BME280;5961;42.640;23.380;2024-02-14T09:15:07;94173.19;;;5.08;88.83
11808;BME280;5961;42.640;23.380;2024-02-14T09:17:35;94184.38;;;4.99;88.91
11808;BME280;5961;42.640;23.380;2024-02-14T09:20:02;94172.88;;;4.95;90.09
11808;BME280;5961;42.640;23.380;2024-02-14T09:22:29;94168.69;;;4.94;90.04
11808;BME280;5961;42.640;23.380;2024-02-14T09:24:56;94173.19;;;5.08;89.79
11808;BME280;5961;42.640;23.380;2024-02-14T09:27:23;94183.88;;;5.11;89.48
11808;BME280;5961;42.640;23.380;2024-02-14T09:29:50;94193.84;;;5.01;89.85
11808;BME280;5961;42.640;23.380;2024-02-14T09:32:16;94215.69;;;5.01;89.82
11808;BME280;5961;42.640;23.380;2024-02-14T09:34:44;94201.16;;;4.76;90.25
11808;BME280;5961;42.640;23.380;2024-02-14T09:37:12;94161.66;;;4.76;90.62
11808;BME280;5961;42.640;23.380;2024-02-14T09:39:39;94202.91;;;4.94;90.99
11808;BME280;5961;42.640;23.380;2024-02-14T09:42:12;94183.69;;;4.94;91.33
11808;BME280;5961;42.640;23.380;2024-02-14T09:44:40;94191.19;;;4.87;90.90
11808;BME280;5961;42.640;23.380;2024-02-14T09:47:07;94165.16;;;4.58;91.22
11808;BME280;5961;42.640;23.380;2024-02-14T09:49:35;94187.81;;;4.86;91.35
11808;BME280;5961;42.640;23.380;2024-02-14T09:52:05;94190.63;;;4.90;90.75
11808;BME280;5961;42.640;23.380;2024-02-14T09:54:32;94187.41;;;4.93;90.71
11808;BME280;5961;42.640;23.380;2024-02-14T09:57:01;94229.72;;;4.96;89.83
11808;BME280;5961;42.640;23.380;2024-02-14T09:59:29;94174.72;;;4.81;89.17
11808;BME280;5961;42.640;23.380;2024-02-14T10:01:56;94181.97;;;4.89;89.36
11808;BME280;5961;42.640;23.380;2024-02-14T10:04:23;94163.22;;;4.91;89.22
11808;BME280;5961;42.640;23.380;2024-02-14T10:06:50;94184.75;;;4.93;89.58
11808;BME280;5961;42.640;23.380;2024-02-14T10:09:20;94188.84;;;4.99;89.45
11808;BME280;5961;42.640;23.380;2024-02-14T10:11:47;94184.88;;;5.02;88.65
11808;BME280;5961;42.640;23.380;2024-02-14T10:14:14;94193.53;;;5.02;88.94
11808;BME280;5961;42.640;23.380;2024-02-14T10:16:41;94167.09;;;4.93;88.66
11808;BME280;5961;42.640;23.380;2024-02-14T10:19:14;94168.09;;;4.97;88.88
11808;BME280;5961;42.640;23.380;2024-02-14T10:21:41;94190.53;;;5.09;88.35
11808;BME280;5961;42.640;23.380;2024-02-14T10:24:08;94168.84;;;5.12;88.10
11808;BME280;5961;42.640;23.380;2024-02-14T10:26:37;94214.91;;;5.01;87.87
11808;BME280;5961;42.640;23.380;2024-02-14T10:29:06;94196.97;;;5.03;89.31
11808;BME280;5961;42.640;23.380;2024-02-14T10:31:35;94211.81;;;4.98;88.53
11808;BME280;5961;42.640;23.380;2024-02-14T10:34:02;94193.94;;;4.95;88.93
11808;BME280;5961;42.640;23.380;2024-02-14T10:36:31;94188.09;;;4.98;88.19
11808;BME280;5961;42.640;23.380;2024-02-14T10:39:00;94183.13;;;4.97;88.58
11808;BME280;5961;42.640;23.380;2024-02-14T10:41:30;94171.91;;;4.91;87.65
11808;BME280;5961;42.640;23.380;2024-02-14T10:44:01;94182.91;;;4.93;88.20
11808;BME280;5961;42.640;23.380;2024-02-14T10:46:31;94195.41;;;5.02;87.95
11808;BME280;5961;42.640;23.380;2024-02-14T10:49:02;94162.03;;;4.97;87.39
11808;BME280;5961;42.640;23.380;2024-02-14T10:51:31;94190.81;;;4.93;87.52
11808;BME280;5961;42.640;23.380;2024-02-14T10:54:00;94170.63;;;5.03;87.01
11808;BME280;5961;42.640;23.380;2024-02-14T10:56:31;94175.31;;;5.06;86.84
11808;BME280;5961;42.640;23.380;2024-02-14T10:58:59;94181.84;;;5.08;87.44
11808;BME280;5961;42.640;23.380;2024-02-14T11:01:29;94194.41;;;5.11;86.53
11808;BME280;5961;42.640;23.380;2024-02-14T11:03:58;94197.94;;;5.07;86.53
11808;BME280;5961;42.640;23.380;2024-02-14T11:06:25;94210.63;;;5.05;86.84
11808;BME280;5961;42.640;23.380;2024-02-14T11:08:56;94186.94;;;5.05;86.27
11808;BME280;5961;42.640;23.380;2024-02-14T11:11:23;94189.66;;;5.13;87.04
11808;BME280;5961;42.640;23.380;2024-02-14T11:13:52;94188.75;;;5.18;86.03
11808;BME280;5961;42.640;23.380;2024-02-14T11:16:24;94177.63;;;5.21;85.96
11808;BME280;5961;42.640;23.380;2024-02-14T11:19:05;94190.81;;;5.21;85.29
11808;BME280;5961;42.640;23.380;2024-02-14T11:21:35;94189.75;;;5.22;85.22
11808;BME280;5961;42.640;23.380;2024-02-14T11:24:04;94181.72;;;5.27;85.32
11808;BME280;5961;42.640;23.380;2024-02-14T11:26:45;94202.91;;;5.22;84.95
11808;BME280;5961;42.640;23.380;2024-02-14T11:29:14;94187.47;;;5.29;85.53
11808;BME280;5961;42.640;23.380;2024-02-14T11:31:41;94187.84;;;5.36;84.72
11808;BME280;5961;42.640;23.380;2024-02-14T11:34:12;94181.53;;;5.37;85.05
11808;BME280;5961;42.640;23.380;2024-02-14T11:36:41;94184.94;;;5.37;85.24
11808;BME280;5961;42.640;23.380;2024-02-14T11:39:08;94193.00;;;5.41;84.80
11808;BME280;5961;42.640;23.380;2024-02-14T11:41:35;94185.69;;;5.38;85.34
11808;BME280;5961;42.640;23.380;2024-02-14T11:44:04;94176.25;;;5.37;84.94
11808;BME280;5961;42.640;23.380;2024-02-14T11:46:31;94159.06;;;5.26;85.44
11808;BME280;5961;42.640;23.380;2024-02-14T11:48:58;94186.19;;;5.40;84.81
11808;BME280;5961;42.640;23.380;2024-02-14T11:51:27;94176.25;;;5.37;85.37
11808;BME280;5961;42.640;23.380;2024-02-14T11:53:56;94174.47;;;5.46;86.30
11808;BME280;5961;42.640;23.380;2024-02-14T11:56:23;94165.78;;;5.45;86.29
11808;BME280;5961;42.640;23.380;2024-02-14T11:58:51;94180.09;;;5.53;86.67
11808;BME280;5961;42.640;23.380;2024-02-14T12:01:18;94171.72;;;5.51;85.94
11808;BME280;5961;42.640;23.380;2024-02-14T12:03:45;94171.91;;;5.54;86.94
11808;BME280;5961;42.640;23.380;2024-02-14T12:06:12;94119.66;;;5.21;86.21
11808;BME280;5961;42.640;23.380;2024-02-14T12:08:42;94171.72;;;5.51;85.85
11808;BME280;5961;42.640;23.380;2024-02-14T12:11:09;94170.94;;;5.50;86.40
11808;BME280;5961;42.640;23.380;2024-02-14T12:13:35;94155.91;;;5.51;86.20
11808;BME280;5961;42.640;23.380;2024-02-14T12:16:03;94179.22;;;5.58;84.86
11808;BME280;5961;42.640;23.380;2024-02-14T12:18:31;94179.03;;;5.54;85.37
11808;BME280;5961;42.640;23.380;2024-02-14T12:21:06;94149.91;;;5.37;85.55
11808;BME280;5961;42.640;23.380;2024-02-14T12:23:34;94160.47;;;5.59;85.23
11808;BME280;5961;42.640;23.380;2024-02-14T12:26:03;94153.84;;;5.62;85.39
11808;BME280;5961;42.640;23.380;2024-02-14T12:28:31;94175.41;;;5.64;85.25
11808;BME280;5961;42.640;23.380;2024-02-14T12:30:58;94178.91;;;5.59;84.60
11808;BME280;5961;42.640;23.380;2024-02-14T12:33:25;94171.50;;;5.61;84.52
11808;BME280;5961;42.640;23.380;2024-02-14T12:35:54;94172.28;;;5.62;83.78
11808;BME280;5961;42.640;23.380;2024-02-14T12:40:51;94148.31;;;5.49;83.72
11808;BME280;5961;42.640;23.380;2024-02-14T12:43:20;94151.97;;;5.62;83.20
11808;BME280;5961;42.640;23.380;2024-02-14T12:45:47;94160.84;;;5.66;83.25
11808;BME280;5961;42.640;23.380;2024-02-14T12:48:22;94172.72;;;5.77;82.88
11808;BME280;5961;42.640;23.380;2024-02-14T12:50:49;94170.84;;;5.78;82.14
11808;BME280;5961;42.640;23.380;2024-02-14T12:53:17;94179.09;;;5.76;82.14
11808;BME280;5961;42.640;23.380;2024-02-14T12:55:45;94175.94;;;5.74;82.08
11808;BME280;5961;42.640;23.380;2024-02-14T12:58:12;94174.41;;;5.73;82.32
11808;BME280;5961;42.640;23.380;2024-02-14T13:00:40;94173.69;;;5.81;81.59
11808;BME280;5961;42.640;23.380;2024-02-14T13:03:08;94168.72;;;5.80;81.62
11808;BME280;5961;42.640;23.380;2024-02-14T13:05:35;94188.34;;;5.87;81.24
11808;BME280;5961;42.640;23.380;2024-02-14T13:08:03;94186.88;;;5.95;80.52
11808;BME280;5961;42.640;23.380;2024-02-14T13:10:29;94189.00;;;5.93;80.99
11808;BME280;5961;42.640;23.380;2024-02-14T13:12:56;94192.44;;;5.93;79.95
11808;BME280;5961;42.640;23.380;2024-02-14T13:15:23;94190.75;;;5.97;80.42